createdAt,value
2022-10-05T00:00:27.310Z,45.2470
2022-10-05T00:01:29.606Z,45.2750
2022-10-05T00:02:29.706Z,45.1810
2022-10-05T00:03:31.900Z,45.1330
2022-10-05T00:04:34.103Z,45.1610
2022-10-05T00:05:36.312Z,45.1610
2022-10-05T00:06:38.539Z,45.1750
2022-10-05T00:07:40.795Z,45.2090
2022-10-05T00:08:43.050Z,45.2650
2022-10-05T00:09:47.398Z,45.2290
2022-10-05T00:10:41.055Z,45.2630
2022-10-05T00:11:43.220Z,45.2410
2022-10-05T00:12:43.311Z,45.2510
2022-10-05T00:13:47.633Z,45.2470
2022-10-05T00:14:47.723Z,45.2410
2022-10-05T00:15:49.923Z,45.2740
2022-10-05T00:16:52.257Z,45.1910
2022-10-05T00:17:54.447Z,45.1550
2022-10-05T00:18:56.650Z,45.1550
2022-10-05T00:19:58.907Z,45.1950
2022-10-05T00:21:01.190Z,45.1670
2022-10-05T00:22:03.489Z,45.1350
2022-10-05T00:23:03.747Z,45.1550
2022-10-05T00:24:05.903Z,45.1170
2022-10-05T00:25:08.144Z,45.0270
2022-10-05T00:26:10.405Z,45.0250
2022-10-05T00:27:12.670Z,45.0810
2022-10-05T00:28:15.085Z,45.0550
2022-10-05T00:29:17.209Z,45.1230
2022-10-05T00:30:19.494Z,45.0190
2022-10-05T00:31:19.658Z,45.0190
2022-10-05T00:32:21.833Z,45.0780
2022-10-05T00:33:24.118Z,45.0660
2022-10-05T00:34:26.391Z,45.1800
2022-10-05T00:35:28.632Z,45.1560
2022-10-05T00:36:30.878Z,44.9990
2022-10-05T00:37:33.153Z,45.0070
2022-10-05T00:38:35.485Z,45.1140
2022-10-05T00:39:37.718Z,45.1160
2022-10-05T00:40:37.819Z,45.0460
2022-10-05T00:41:40.069Z,44.9690
2022-10-05T00:44:01.940Z,45.0230
2022-10-05T00:45:03.972Z,45.0360
2022-10-05T00:46:06.253Z,45.1000
2022-10-05T00:47:08.374Z,45.0940
2022-10-05T00:48:10.577Z,45.1780
2022-10-05T00:49:12.797Z,45.1400
2022-10-05T00:50:12.873Z,45.1440
2022-10-05T00:51:15.092Z,45.1400
2022-10-05T00:52:17.255Z,45.1400
2022-10-05T00:53:19.456Z,45.1960
2022-10-05T00:54:21.657Z,45.1720
2022-10-05T00:55:23.826Z,45.0980
2022-10-05T00:56:25.959Z,45.0940
2022-10-05T00:57:28.134Z,45.1000
2022-10-05T00:58:30.304Z,45.0880
2022-10-05T00:59:32.538Z,45.1040
2022-10-05T01:00:34.713Z,45.1480
2022-10-05T01:01:36.991Z,44.9960
2022-10-05T01:02:39.206Z,45.1260
2022-10-05T01:03:41.278Z,45.1200
2022-10-05T01:04:43.561Z,45.1580
2022-10-05T01:05:45.592Z,45.1450
2022-10-05T01:06:47.987Z,45.0660
2022-10-05T01:07:49.885Z,45.1080
2022-10-05T01:08:52.073Z,45.0960
2022-10-05T01:09:54.391Z,45.1030
2022-10-05T01:10:56.479Z,44.9960
2022-10-05T01:11:58.638Z,44.9740
2022-10-05T01:12:58.679Z,45.0160
2022-10-05T01:14:00.872Z,44.9920
2022-10-05T01:15:03.096Z,45.0410
2022-10-05T01:16:05.308Z,45.0590
2022-10-05T01:17:07.467Z,44.9240
2022-10-05T01:18:09.612Z,44.8600
2022-10-05T01:19:11.820Z,44.8880
2022-10-05T01:20:14.074Z,44.9550
2022-10-05T01:21:16.253Z,44.9790
2022-10-05T01:22:18.446Z,44.9480
2022-10-05T01:23:20.653Z,44.9730
2022-10-05T01:24:22.852Z,44.9670
2022-10-05T01:25:25.065Z,44.9480
2022-10-05T01:26:27.263Z,44.9330
2022-10-05T01:27:29.415Z,44.9970
2022-10-05T01:28:31.684Z,44.9610
2022-10-05T01:29:33.814Z,45.0230
2022-10-05T01:30:36.052Z,44.9950
2022-10-05T01:31:38.375Z,45.0030
2022-10-05T01:32:38.282Z,44.9610
2022-10-05T01:33:40.489Z,44.9080
2022-10-05T01:34:42.689Z,44.9170
2022-10-05T01:35:44.922Z,44.9550
2022-10-05T01:36:47.449Z,44.9770
2022-10-05T01:37:49.230Z,44.9670
2022-10-05T01:38:51.414Z,44.9170
2022-10-05T01:39:51.464Z,44.9270
2022-10-05T01:40:53.686Z,44.9170
2022-10-05T01:41:55.829Z,44.8750
2022-10-05T01:42:57.988Z,44.8430
2022-10-05T01:44:00.184Z,44.9210
2022-10-05T01:45:02.340Z,44.8690
2022-10-05T01:46:04.575Z,44.8250
2022-10-05T01:47:06.694Z,44.8690
2022-10-05T01:48:08.890Z,44.9210
2022-10-05T01:49:11.075Z,44.8710
2022-10-05T01:50:13.309Z,44.7470
2022-10-05T01:51:15.598Z,44.8590
2022-10-05T01:52:17.803Z,44.9150
2022-10-05T01:53:17.846Z,44.8770
2022-10-05T01:54:20.025Z,44.8770
2022-10-05T01:55:22.257Z,44.7970
2022-10-05T01:56:24.475Z,44.8290
2022-10-05T01:57:26.617Z,44.7910
2022-10-05T01:58:28.760Z,44.7610
2022-10-05T01:59:30.951Z,44.7290
2022-10-05T02:00:33.130Z,44.7390
2022-10-05T02:01:35.497Z,44.7190
2022-10-05T02:02:37.685Z,44.7470
2022-10-05T02:03:39.843Z,44.7970
2022-10-05T02:05:01.470Z,44.8690
2022-10-05T02:05:44.350Z,44.8940
2022-10-05T02:06:47.050Z,44.8990
2022-10-05T02:07:46.705Z,44.8550
2022-10-05T02:08:48.973Z,44.8150
2022-10-05T02:09:51.255Z,44.7410
2022-10-05T02:10:53.529Z,44.7670
2022-10-05T02:11:55.835Z,44.7410
2022-10-05T02:12:58.058Z,44.7570
2022-10-05T02:14:00.302Z,44.8010
2022-10-05T02:15:02.551Z,44.7950
2022-10-05T02:16:04.878Z,44.8360
2022-10-05T02:17:04.939Z,44.8020
2022-10-05T02:18:07.196Z,44.7710
2022-10-05T02:19:09.452Z,44.8670
2022-10-05T02:20:11.709Z,44.8180
2022-10-05T02:21:13.977Z,44.8120
2022-10-05T02:22:16.244Z,44.7920
2022-10-05T02:23:18.472Z,44.8050
2022-10-05T02:25:42.330Z,44.9020
2022-10-05T02:26:44.832Z,44.8480
2022-10-05T02:27:46.652Z,44.7740
2022-10-05T02:28:48.870Z,44.7500
2022-10-05T02:29:51.066Z,44.7940
2022-10-05T02:30:53.300Z,44.7560
2022-10-05T02:31:55.529Z,44.7740
2022-10-05T02:32:57.762Z,44.7520
2022-10-05T02:33:59.972Z,44.8460
2022-10-05T02:35:02.209Z,44.7900
2022-10-05T02:36:04.446Z,44.7720
2022-10-05T02:37:04.536Z,44.7260
2022-10-05T02:38:06.790Z,44.7520
2022-10-05T02:39:08.916Z,44.7220
2022-10-05T02:40:11.120Z,44.7860
2022-10-05T02:41:13.335Z,44.8640
2022-10-05T02:42:15.582Z,44.8400
2022-10-05T02:43:17.879Z,44.8780
2022-10-05T02:44:20.121Z,44.8920
2022-10-05T02:45:22.348Z,44.8400
2022-10-05T02:46:23.581Z,44.8000
2022-10-05T02:47:25.746Z,44.8960
2022-10-05T02:48:25.887Z,44.9580
2022-10-05T02:49:28.110Z,44.9660
2022-10-05T02:50:30.334Z,44.9820
2022-10-05T02:51:32.571Z,45.0950
2022-10-05T02:52:34.780Z,45.2010
2022-10-05T02:53:37.122Z,45.3120
2022-10-05T02:54:39.321Z,45.2930
2022-10-05T02:55:41.547Z,45.2970
2022-10-05T02:56:44.118Z,45.2810
2022-10-05T02:57:45.931Z,45.2810
2022-10-05T02:58:48.130Z,45.3430
2022-10-05T02:59:50.361Z,45.2930
2022-10-05T03:00:52.663Z,45.3050
2022-10-05T03:01:52.766Z,45.3050
2022-10-05T03:02:54.898Z,45.3230
2022-10-05T03:03:57.146Z,45.2770
2022-10-05T03:04:59.346Z,45.2230
2022-10-05T03:06:01.575Z,45.2750
2022-10-05T03:07:03.800Z,45.3150
2022-10-05T03:08:06.039Z,45.3330
2022-10-05T03:09:08.298Z,45.3840
2022-10-05T03:10:10.504Z,45.4020
2022-10-05T03:11:10.580Z,45.3840
2022-10-05T03:12:12.773Z,45.3400
2022-10-05T03:13:15.009Z,45.3180
2022-10-05T03:14:17.241Z,45.3140
2022-10-05T03:15:19.446Z,45.3280
2022-10-05T03:16:19.606Z,45.3080
2022-10-05T03:17:21.753Z,45.3160
2022-10-05T03:18:28.563Z,45.3420
2022-10-05T03:19:26.236Z,45.3720
2022-10-05T03:20:28.406Z,45.3260
2022-10-05T03:21:30.627Z,45.3040
2022-10-05T03:22:32.863Z,45.1760
2022-10-05T03:23:35.067Z,45.1690
2022-10-05T03:24:37.337Z,45.2740
2022-10-05T03:25:37.382Z,45.2600
2022-10-05T03:26:39.584Z,45.2980
2022-10-05T03:27:41.818Z,45.2860
2022-10-05T03:28:44.050Z,45.2680
2022-10-05T03:29:46.257Z,45.3360
2022-10-05T03:30:46.327Z,45.3440
2022-10-05T03:31:48.511Z,45.2740
2022-10-05T03:32:50.768Z,45.1920
2022-10-05T03:33:53.040Z,45.1740
2022-10-05T03:34:55.363Z,45.0950
2022-10-05T03:35:57.584Z,45.1320
2022-10-05T03:36:59.866Z,45.1740
2022-10-05T03:38:02.123Z,45.2020
2022-10-05T03:39:02.233Z,45.2140
2022-10-05T03:40:04.475Z,45.1800
2022-10-05T03:41:06.762Z,45.2520
2022-10-05T03:42:09.174Z,45.2920
2022-10-05T03:43:11.245Z,45.3040
2022-10-05T03:44:13.585Z,45.2740
2022-10-05T03:45:15.788Z,45.2700
2022-10-05T03:46:18.215Z,45.1680
2022-10-05T03:47:18.178Z,45.1060
2022-10-05T03:48:20.470Z,45.1120
2022-10-05T03:49:22.754Z,45.1660
2022-10-05T03:50:25.029Z,45.1780
2022-10-05T03:51:25.113Z,45.2360
2022-10-05T03:52:27.381Z,45.2080
2022-10-05T03:53:29.651Z,45.2340
2022-10-05T03:54:31.940Z,45.2280
2022-10-05T03:55:32.082Z,45.1880
2022-10-05T03:56:34.300Z,45.1860
2022-10-05T03:57:36.543Z,45.1540
2022-10-05T03:58:38.769Z,45.1320
2022-10-05T03:59:40.986Z,45.1560
2022-10-05T04:00:43.273Z,45.1400
2022-10-05T04:01:45.584Z,45.0360
2022-10-05T04:02:47.690Z,45.0920
2022-10-05T04:03:49.839Z,45.1100
2022-10-05T04:04:52.065Z,45.0440
2022-10-05T04:05:54.331Z,44.9580
2022-10-05T04:06:56.587Z,45.0820
2022-10-05T04:07:58.830Z,45.1120
2022-10-05T04:09:01.038Z,45.0660
2022-10-05T04:10:03.256Z,45.0120
2022-10-05T04:11:05.562Z,45.1120
2022-10-05T04:12:07.852Z,45.1060
2022-10-05T04:13:10.085Z,45.1340
2022-10-05T04:14:12.337Z,45.1900
2022-10-05T04:15:18.739Z,45.1060
2022-10-05T04:16:16.873Z,45.1440
2022-10-05T04:17:19.019Z,45.1060
2022-10-05T04:18:21.177Z,45.1260
2022-10-05T04:19:23.403Z,45.0760
2022-10-05T04:20:25.636Z,45.0820
2022-10-05T04:21:27.926Z,45.1400
2022-10-05T04:22:30.168Z,45.1880
2022-10-05T04:23:32.448Z,45.1800
2022-10-05T04:24:34.671Z,45.1740
2022-10-05T04:25:36.873Z,45.1850
2022-10-05T04:26:39.149Z,45.2720
2022-10-05T04:27:41.351Z,45.2970
2022-10-05T04:28:43.689Z,45.2930
2022-10-05T04:29:45.830Z,45.3030
2022-10-05T04:30:48.038Z,45.2910
2022-10-05T04:31:50.410Z,45.2170
2022-10-05T04:32:52.498Z,45.1980
2022-10-05T04:33:54.723Z,45.1400
2022-10-05T04:34:56.935Z,45.1340
2022-10-05T04:35:59.180Z,45.1220
2022-10-05T04:37:01.411Z,45.1740
2022-10-05T04:38:01.466Z,45.2410
2022-10-05T04:39:03.713Z,45.2470
2022-10-05T04:40:05.929Z,45.2570
2022-10-05T04:41:08.136Z,45.3210
2022-10-05T04:42:10.387Z,45.2810
2022-10-05T04:43:12.561Z,45.2870
2022-10-05T04:44:14.778Z,45.2170
2022-10-05T04:45:16.998Z,45.3030
2022-10-05T04:46:19.277Z,45.3310
2022-10-05T04:47:19.355Z,45.2510
2022-10-05T04:48:21.550Z,45.2720
2022-10-05T04:49:23.771Z,45.2410
2022-10-05T04:50:25.993Z,45.3090
2022-10-05T04:51:28.185Z,45.3190
2022-10-05T04:52:28.264Z,45.3590
2022-10-05T04:53:30.439Z,45.3590
2022-10-05T04:54:32.662Z,45.3650
2022-10-05T04:55:34.886Z,45.3430
2022-10-05T04:56:37.106Z,45.2650
2022-10-05T04:57:37.233Z,45.2790
2022-10-05T04:58:42.418Z,45.2690
2022-10-05T04:59:41.639Z,45.3470
2022-10-05T05:00:44.047Z,45.3210
2022-10-05T05:01:46.097Z,45.2990
2022-10-05T05:02:46.227Z,45.3550
2022-10-05T05:03:48.492Z,45.2720
2022-10-05T05:04:52.066Z,45.3210
2022-10-05T05:06:15.933Z,45.3470
2022-10-05T05:06:55.044Z,45.3590
2022-10-05T05:07:55.123Z,45.3670
2022-10-05T05:08:57.313Z,45.4410
2022-10-05T05:09:59.500Z,45.4110
2022-10-05T05:11:01.698Z,45.3530
2022-10-05T05:12:03.894Z,45.3130
2022-10-05T05:13:06.057Z,45.2870
2022-10-05T05:14:08.208Z,45.3030
2022-10-05T05:15:10.427Z,45.2930
2022-10-05T05:16:12.751Z,45.2810
2022-10-05T05:17:14.854Z,45.3030
2022-10-05T05:18:14.956Z,45.3330
2022-10-05T05:19:17.137Z,45.2870
2022-10-05T05:20:19.403Z,45.3210
2022-10-05T05:21:21.546Z,45.3090
2022-10-05T05:22:23.767Z,45.3090
2022-10-05T05:23:23.913Z,45.3430
2022-10-05T05:24:26.123Z,45.3150
2022-10-05T05:25:28.382Z,45.2910
2022-10-05T05:26:32.031Z,45.2510
2022-10-05T05:27:32.874Z,45.3190
2022-10-05T05:28:35.243Z,45.3810
2022-10-05T05:29:37.363Z,45.3430
2022-10-05T05:30:39.596Z,45.3890
2022-10-05T05:31:41.915Z,45.3710
2022-10-05T05:32:44.079Z,45.3550
2022-10-05T05:33:46.353Z,45.3410
2022-10-05T05:34:48.618Z,45.4110
2022-10-05T05:35:50.818Z,45.4790
2022-10-05T05:36:53.070Z,45.5030
2022-10-05T05:37:55.310Z,45.4350
2022-10-05T05:38:57.591Z,45.4230
2022-10-05T05:39:57.660Z,45.3810
2022-10-05T05:40:59.894Z,45.3210
2022-10-05T05:42:02.132Z,45.2970
2022-10-05T05:43:04.383Z,45.2970
2022-10-05T05:44:06.672Z,45.3250
2022-10-05T05:45:08.929Z,45.3370
2022-10-05T05:46:11.275Z,45.3750
2022-10-05T05:47:13.984Z,45.3190
2022-10-05T05:48:13.638Z,45.3890
2022-10-05T05:49:15.958Z,45.3990
2022-10-05T05:50:18.221Z,45.4110
2022-10-05T05:51:20.481Z,45.4610
2022-10-05T05:52:20.613Z,45.4410
2022-10-05T05:53:22.893Z,45.4610
2022-10-05T05:54:25.158Z,45.4340
2022-10-05T05:55:30.152Z,45.4520
2022-10-05T05:56:27.542Z,45.4520
2022-10-05T05:57:29.830Z,45.4050
2022-10-05T05:58:32.122Z,45.3710
2022-10-05T05:59:34.423Z,45.3810
2022-10-05T06:00:34.516Z,45.4230
2022-10-05T06:01:39.560Z,45.3470
2022-10-05T06:02:39.214Z,45.3650
2022-10-05T06:03:41.359Z,45.3270
2022-10-05T06:04:43.675Z,45.3010
2022-10-05T06:05:45.948Z,45.2930
2022-10-05T06:06:48.651Z,45.2590
2022-10-05T06:07:48.289Z,45.2670
2022-10-05T06:08:50.517Z,45.3270
2022-10-05T06:09:52.756Z,45.2810
2022-10-05T06:10:54.916Z,45.2810
2022-10-05T06:11:57.096Z,45.2130
2022-10-05T06:13:01.742Z,45.1850
2022-10-05T06:14:01.524Z,45.1730
2022-10-05T06:15:03.752Z,45.1250
2022-10-05T06:16:06.015Z,45.0840
2022-10-05T06:17:08.164Z,45.1110
2022-10-05T06:18:08.235Z,45.1430
2022-10-05T06:19:10.485Z,45.1550
2022-10-05T06:20:12.712Z,45.1650
2022-10-05T06:21:14.929Z,45.2390
2022-10-05T06:22:17.118Z,45.1770
2022-10-05T06:23:19.340Z,45.2390
2022-10-05T06:24:21.551Z,45.2390
2022-10-05T06:25:23.813Z,45.1830
2022-10-05T06:26:25.995Z,45.1830
2022-10-05T06:27:26.059Z,45.1650
2022-10-05T06:28:28.278Z,45.1990
2022-10-05T06:29:30.482Z,45.2250
2022-10-05T06:30:32.687Z,45.1190
2022-10-05T06:31:34.915Z,45.1590
2022-10-05T06:32:37.028Z,45.1710
2022-10-05T06:33:39.241Z,45.1330
2022-10-05T06:34:41.432Z,45.1430
2022-10-05T06:35:43.662Z,45.1850
2022-10-05T06:36:46.141Z,45.1390
2022-10-05T06:37:48.067Z,45.1270
2022-10-05T06:38:50.239Z,45.1890
2022-10-05T06:39:52.474Z,45.1490
2022-10-05T06:40:54.738Z,45.2010
2022-10-05T06:41:56.997Z,45.1830
2022-10-05T06:42:59.273Z,45.1270
2022-10-05T06:44:01.557Z,45.1250
2022-10-05T06:45:03.793Z,45.2110
2022-10-05T06:46:03.960Z,45.1210
2022-10-05T06:47:06.169Z,45.1610
2022-10-05T06:48:08.442Z,45.1270
2022-10-05T06:49:10.692Z,45.0370
2022-10-05T06:50:10.762Z,45.0590
2022-10-05T06:51:12.984Z,45.0250
2022-10-05T06:52:15.184Z,45.0570
2022-10-05T06:53:17.360Z,45.0250
2022-10-05T06:54:19.566Z,45.0350
2022-10-05T06:55:21.795Z,44.9850
2022-10-05T06:56:24.029Z,44.9080
2022-10-05T06:57:26.189Z,44.9510
2022-10-05T06:58:28.417Z,45.0130
2022-10-05T06:59:30.628Z,44.9830
2022-10-05T07:00:30.692Z,45.0190
2022-10-05T07:01:32.876Z,44.9690
2022-10-05T07:02:35.090Z,45.0010
2022-10-05T07:03:37.223Z,44.9630
2022-10-05T07:04:39.416Z,44.9770
2022-10-05T07:05:41.607Z,45.0010
2022-10-05T07:06:43.855Z,45.0230
2022-10-05T07:07:46.114Z,45.0350
2022-10-05T07:08:48.351Z,45.0230
2022-10-05T07:09:50.576Z,44.9630
2022-10-05T07:10:52.865Z,45.0030
2022-10-05T07:11:59.516Z,44.9790
2022-10-05T07:12:57.390Z,45.0870
2022-10-05T07:13:57.509Z,45.0750
2022-10-05T07:14:59.758Z,45.0850
2022-10-05T07:16:02.093Z,44.9770
2022-10-05T07:17:04.318Z,44.9510
2022-10-05T07:18:06.492Z,44.8830
2022-10-05T07:19:08.742Z,44.8470
2022-10-05T07:20:11.001Z,44.8340
2022-10-05T07:21:13.255Z,44.8750
2022-10-05T07:22:15.539Z,44.9090
2022-10-05T07:23:17.781Z,44.9330
2022-10-05T07:24:20.050Z,44.9510
2022-10-05T07:25:22.359Z,44.9850
2022-10-05T07:26:24.642Z,44.9390
2022-10-05T07:27:26.977Z,44.9850
2022-10-05T07:28:29.267Z,44.9830
2022-10-05T07:29:29.304Z,44.9570
2022-10-05T07:30:31.650Z,44.9230
2022-10-05T07:31:33.857Z,44.8690
2022-10-05T07:32:36.092Z,44.8660
2022-10-05T07:33:38.469Z,44.7690
2022-10-05T07:34:40.638Z,44.8090
2022-10-05T07:35:42.909Z,44.8490
2022-10-05T07:36:45.990Z,44.9110
2022-10-05T07:37:45.311Z,44.9890
2022-10-05T07:38:47.569Z,45.0630
2022-10-05T07:40:00.071Z,45.1190
2022-10-05T07:40:52.068Z,45.1730
2022-10-05T07:41:52.135Z,45.1730
2022-10-05T07:42:54.377Z,45.1650
2022-10-05T07:44:06.713Z,45.1250
2022-10-05T07:44:58.757Z,45.1730
2022-10-05T07:46:01.060Z,45.2330
2022-10-05T07:47:01.057Z,45.2970
2022-10-05T07:48:03.263Z,45.3150
2022-10-05T07:49:05.444Z,45.3130
2022-10-05T07:50:07.677Z,45.3030
2022-10-05T07:51:09.943Z,45.3770
2022-10-05T07:52:10.003Z,45.4010
2022-10-05T07:53:12.254Z,45.3310
2022-10-05T07:54:16.211Z,45.3650
2022-10-05T07:55:18.834Z,45.2060
2022-10-05T07:56:20.957Z,45.0600
2022-10-05T07:57:23.087Z,44.8830
2022-10-05T07:58:25.270Z,44.8100
2022-10-05T07:59:27.399Z,44.8000
2022-10-05T08:00:29.557Z,44.8000
2022-10-05T08:01:31.778Z,44.7440
2022-10-05T08:02:34.049Z,44.7750
2022-10-05T08:03:36.097Z,44.8050
2022-10-05T08:04:41.775Z,44.8150
2022-10-05T08:05:40.456Z,44.7710
2022-10-05T08:06:42.644Z,44.7710
2022-10-05T08:07:42.693Z,44.8000
2022-10-05T08:08:44.905Z,44.8050
2022-10-05T08:09:47.232Z,44.7630
2022-10-05T08:10:49.270Z,44.7750
2022-10-05T08:11:51.457Z,44.7430
2022-10-05T08:12:53.690Z,44.7500
2022-10-05T08:13:55.968Z,44.7290
2022-10-05T08:14:58.146Z,44.6690
2022-10-05T08:16:00.411Z,44.6470
2022-10-05T08:17:02.600Z,44.6810
2022-10-05T08:18:04.834Z,44.6350
2022-10-05T08:19:07.127Z,44.5970
2022-10-05T08:20:09.334Z,44.6030
2022-10-05T08:21:11.599Z,44.6410
2022-10-05T08:22:11.692Z,44.6530
2022-10-05T08:23:13.890Z,44.6450
2022-10-05T08:24:16.154Z,44.6750
2022-10-05T08:25:18.431Z,44.7430
2022-10-05T08:26:20.643Z,44.7990
2022-10-05T08:27:22.830Z,44.8150
2022-10-05T08:28:25.146Z,44.8110
2022-10-05T08:29:27.366Z,44.7750
2022-10-05T08:30:29.602Z,44.7810
2022-10-05T08:31:29.799Z,44.1860
2022-10-05T08:32:32.042Z,43.0730
2022-10-05T08:33:34.315Z,44.1270
2022-10-05T08:34:36.704Z,45.2240
2022-10-05T08:35:39.041Z,46.1520
2022-10-05T08:36:41.348Z,46.6170
2022-10-05T08:37:41.470Z,46.8880
2022-10-05T08:38:43.754Z,47.2920
2022-10-05T08:39:46.112Z,47.6520
2022-10-05T08:40:48.416Z,47.5890
2022-10-05T08:41:50.671Z,47.4600
2022-10-05T08:42:52.997Z,47.2980
2022-10-05T08:43:53.193Z,47.8450
2022-10-05T08:44:55.581Z,47.8380
2022-10-05T08:45:57.958Z,47.5290
2022-10-05T08:47:00.282Z,48.0090
2022-10-05T08:48:01.521Z,48.4730
2022-10-05T08:49:01.696Z,48.6960
2022-10-05T08:50:04.050Z,48.8540
2022-10-05T08:51:06.332Z,49.0440
2022-10-05T08:52:08.680Z,49.2750
2022-10-05T08:53:11.008Z,49.2950
2022-10-05T08:54:13.316Z,49.2420
2022-10-05T08:55:15.682Z,49.4580
2022-10-05T08:56:20.891Z,49.3460
2022-10-05T08:57:20.276Z,49.5080
2022-10-05T08:58:22.604Z,49.4710
2022-10-05T08:59:24.934Z,49.5710
2022-10-05T09:00:27.347Z,49.4710
2022-10-05T09:01:29.694Z,49.5040
2022-10-05T09:02:32.059Z,49.8240
2022-10-05T09:03:34.679Z,49.8000
2022-10-05T09:04:36.591Z,49.6410
2022-10-05T09:05:38.947Z,49.5410
2022-10-05T09:06:41.272Z,49.4240
2022-10-05T09:07:43.591Z,49.6230
2022-10-05T09:08:45.936Z,49.4700
2022-10-05T09:09:48.171Z,49.5930
2022-10-05T09:10:50.482Z,49.6990
2022-10-05T09:11:52.773Z,49.8550
2022-10-05T09:12:55.069Z,49.9530
2022-10-05T09:13:57.322Z,49.9790
2022-10-05T09:15:23.829Z,49.8020
2022-10-05T09:15:59.811Z,49.9360
2022-10-05T09:17:02.051Z,49.9100
2022-10-05T09:18:04.361Z,49.8940
2022-10-05T09:19:06.694Z,49.6340
2022-10-05T09:20:09.009Z,49.8040
2022-10-05T09:21:11.353Z,50.1540
2022-10-05T09:22:13.635Z,49.8640
2022-10-05T09:23:15.936Z,49.2780
2022-10-05T09:24:18.237Z,49.5040
2022-10-05T09:25:18.360Z,49.5050
2022-10-05T09:26:20.676Z,49.5650
2022-10-05T09:27:22.937Z,48.9120
2022-10-05T09:28:25.306Z,48.0550
2022-10-05T09:29:27.444Z,47.3680
2022-10-05T09:30:29.689Z,46.8990
2022-10-05T09:31:32.051Z,46.4640
2022-10-05T09:32:34.161Z,46.1710
2022-10-05T09:33:36.345Z,45.9460
2022-10-05T09:34:38.536Z,45.7220
2022-10-05T09:35:40.736Z,45.6340
2022-10-05T09:36:42.912Z,45.5250
2022-10-05T09:37:45.108Z,45.4570
2022-10-05T09:38:47.338Z,45.4050
2022-10-05T09:39:49.611Z,45.2980
2022-10-05T09:40:51.770Z,45.2520
2022-10-05T09:41:53.973Z,45.2180
2022-10-05T09:42:54.069Z,45.1320
2022-10-05T09:43:56.244Z,45.1060
2022-10-05T09:44:58.461Z,45.0260
2022-10-05T09:46:00.721Z,45.0380
2022-10-05T09:47:02.903Z,45.0030
2022-10-05T09:48:05.074Z,44.9190
2022-10-05T09:49:07.273Z,44.9070
2022-10-05T09:50:09.591Z,44.8970
2022-10-05T09:51:11.679Z,44.8770
2022-10-05T09:52:18.612Z,44.8450
2022-10-05T09:53:13.878Z,44.8570
2022-10-05T09:54:16.089Z,44.8310
2022-10-05T09:55:18.274Z,44.7970
2022-10-05T09:56:20.545Z,44.8110
2022-10-05T09:57:22.694Z,44.8230
2022-10-05T09:58:25.025Z,44.8110
2022-10-05T09:59:27.151Z,44.7830
2022-10-05T10:00:29.388Z,44.7950
2022-10-05T10:01:34.357Z,44.7990
2022-10-05T10:02:34.076Z,44.7920
2022-10-05T10:03:36.121Z,44.7730
2022-10-05T10:04:38.276Z,44.7700
2022-10-05T10:05:40.436Z,44.7760
2022-10-05T10:06:42.633Z,44.7760
2022-10-05T10:07:42.718Z,44.7760
2022-10-05T10:08:44.902Z,44.7720
2022-10-05T10:09:47.117Z,44.7600
2022-10-05T10:10:49.293Z,44.8040
2022-10-05T10:11:51.467Z,44.8160
2022-10-05T10:12:53.703Z,44.8120
2022-10-05T10:13:55.900Z,44.8180
2022-10-05T10:15:02.488Z,44.8060
2022-10-05T10:16:00.370Z,44.8300
2022-10-05T10:17:02.496Z,44.8480
2022-10-05T10:18:02.597Z,44.8420
2022-10-05T10:19:04.732Z,44.8680
2022-10-05T10:20:06.894Z,44.8800
2022-10-05T10:21:09.118Z,44.8740
2022-10-05T10:22:11.332Z,44.8760
2022-10-05T10:23:13.506Z,44.8700
2022-10-05T10:24:13.506Z,44.8850
2022-10-05T10:25:15.652Z,44.8880
2022-10-05T10:26:17.839Z,44.8940
2022-10-05T10:27:19.990Z,44.8990
2022-10-05T10:28:22.247Z,44.8990
2022-10-05T10:30:26.298Z,44.9680
2022-10-05T10:31:23.452Z,44.9870
2022-10-05T10:32:25.619Z,45.0050
2022-10-05T10:33:27.842Z,45.0350
2022-10-05T10:34:30.007Z,45.0390
2022-10-05T10:35:32.177Z,45.0270
2022-10-05T10:36:34.283Z,45.0350
2022-10-05T10:37:36.422Z,45.0650
2022-10-05T10:38:38.673Z,45.0590
2022-10-05T10:39:40.905Z,45.0570
2022-10-05T10:40:43.178Z,45.0810
2022-10-05T10:41:45.405Z,45.0910
2022-10-05T10:42:47.641Z,45.0770
2022-10-05T10:43:49.898Z,45.1090
2022-10-05T10:44:52.055Z,45.1110
2022-10-05T10:45:54.274Z,45.1250
2022-10-05T10:46:56.469Z,45.1310
2022-10-05T10:47:58.572Z,45.1210
2022-10-05T10:49:00.815Z,45.1360
2022-10-05T10:50:02.968Z,45.1050
2022-10-05T10:51:05.183Z,45.1110
2022-10-05T10:52:07.397Z,45.1320
2022-10-05T10:53:09.604Z,45.1380
2022-10-05T10:54:11.796Z,45.1500
2022-10-05T10:55:13.986Z,45.1600
2022-10-05T10:56:16.207Z,45.1720
2022-10-05T10:57:18.440Z,45.1800
2022-10-05T10:58:20.717Z,45.1620
2022-10-05T10:59:25.487Z,45.1680
2022-10-05T11:00:25.076Z,45.2240
2022-10-05T11:01:27.396Z,45.2060
2022-10-05T11:02:29.507Z,45.2140
2022-10-05T11:03:31.660Z,45.2580
2022-10-05T11:04:33.895Z,45.2520
2022-10-05T11:05:36.053Z,45.2700
2022-10-05T11:06:38.218Z,45.2520
2022-10-05T11:07:40.381Z,45.2640
2022-10-05T11:08:42.547Z,45.2740
2022-10-05T11:09:44.760Z,45.2800
2022-10-05T11:10:46.862Z,45.3100
2022-10-05T11:11:47.256Z,45.3080
2022-10-05T11:12:49.134Z,45.3100
2022-10-05T11:13:51.365Z,45.3160
2022-10-05T11:14:53.559Z,45.3440
2022-10-05T11:15:55.835Z,45.3220
2022-10-05T11:16:57.970Z,45.3280
2022-10-05T11:18:00.152Z,45.3370
2022-10-05T11:19:02.443Z,45.3370
2022-10-05T11:20:05.400Z,45.3620
2022-10-05T11:21:06.848Z,45.3620
2022-10-05T11:22:09.092Z,45.3550
2022-10-05T11:23:11.313Z,45.3850
2022-10-05T11:24:13.501Z,45.3950
2022-10-05T11:25:15.761Z,45.4140
2022-10-05T11:26:15.768Z,45.4260
2022-10-05T11:27:17.964Z,45.4580
2022-10-05T11:28:20.172Z,45.4720
2022-10-05T11:29:22.346Z,45.4940
2022-10-05T11:30:24.600Z,45.5040
2022-10-05T11:31:26.905Z,45.4940
2022-10-05T11:32:29.038Z,45.4980
2022-10-05T11:33:31.212Z,45.5040
2022-10-05T11:34:33.432Z,45.4850
2022-10-05T11:35:35.687Z,45.4980
2022-10-05T11:36:37.862Z,45.3970
2022-10-05T11:37:40.079Z,45.4750
2022-10-05T11:38:42.288Z,45.4610
2022-10-05T11:39:44.487Z,45.5150
2022-10-05T11:40:46.710Z,45.4870
2022-10-05T11:41:49.287Z,45.4470
2022-10-05T11:42:51.051Z,45.3870
2022-10-05T11:43:53.274Z,45.2790
2022-10-05T11:44:55.469Z,45.1130
2022-10-05T11:45:55.530Z,45.1400
2022-10-05T11:46:57.714Z,44.8960
2022-10-05T11:47:59.890Z,44.8440
2022-10-05T11:49:02.073Z,44.8070
2022-10-05T11:50:04.321Z,44.7730
2022-10-05T11:51:06.527Z,44.7590
2022-10-05T11:52:08.726Z,44.7310
2022-10-05T11:53:10.940Z,44.7390
2022-10-05T11:54:13.150Z,44.5970
2022-10-05T11:55:15.394Z,44.4630
2022-10-05T11:56:15.445Z,44.3480
2022-10-05T11:57:17.642Z,44.4310
2022-10-05T11:58:19.853Z,44.4710
2022-10-05T11:59:22.064Z,44.3830
2022-10-05T12:00:24.251Z,44.2060
2022-10-05T12:01:26.465Z,44.3060
2022-10-05T12:02:28.696Z,44.4030
2022-10-05T12:03:31.151Z,44.1390
2022-10-05T12:04:33.060Z,44.3100
2022-10-05T12:05:35.274Z,44.3470
2022-10-05T12:06:37.513Z,44.3350
2022-10-05T12:07:39.710Z,44.2980
2022-10-05T12:08:41.915Z,44.2560
2022-10-05T12:09:44.138Z,44.2980
2022-10-05T12:10:44.207Z,44.1740
2022-10-05T12:11:46.444Z,44.1010
2022-10-05T12:12:48.683Z,44.1410
2022-10-05T12:13:50.926Z,44.1940
2022-10-05T12:15:27.614Z,44.1000
2022-10-05T12:16:29.844Z,43.8990
2022-10-05T12:17:32.019Z,43.6940
2022-10-05T12:18:34.189Z,43.6600
2022-10-05T12:19:36.356Z,43.4580
2022-10-05T12:20:38.514Z,43.4240
2022-10-05T12:21:40.723Z,43.3350
2022-10-05T12:22:42.938Z,43.3430
2022-10-05T12:23:45.124Z,43.1150
2022-10-05T12:24:45.203Z,43.2080
2022-10-05T12:25:47.368Z,43.0200
2022-10-05T12:26:49.595Z,43.0000
2022-10-05T12:27:51.827Z,43.0200
2022-10-05T12:28:54.037Z,42.9450
2022-10-05T12:29:56.226Z,42.6760
2022-10-05T12:30:58.589Z,42.5090
2022-10-05T12:32:00.660Z,42.4970
2022-10-05T12:33:02.873Z,42.5020
2022-10-05T12:34:05.091Z,42.4470